Time;durP1;ratioP1;P1;durP2;ratioP2;P2;SDS_P1;SDS_P2;PMS_P1;PMS_P2;Temp;Humidity;BMP_temperature;BMP_pressure;BME280_temperature;BME280_humidity;BME280_pressure;Samples;Min_cycle;Max_cycle;Signal;HPM_P1;HPM_P2
2023/05/03 00:01:00;;;;;;;7.70;4.20;;;;;;;11.27;95.84;99155.50;2568304;28;20061;-84
2023/05/03 00:02:16;;;;;;;7.78;4.13;;;;;;;11.36;94.06;99154.44;2568105;28;20094;-84
2023/05/03 00:03:32;;;;;;;10.98;3.83;;;;;;;11.19;96.12;99162.63;2568270;28;20518;-84
2023/05/03 00:04:52;;;;;;;6.72;3.72;;;;;;;11.24;94.99;99165.16;2568109;28;20047;-84
2023/05/03 00:06:15;;;;;;;9.27;4.25;;;;;;;11.36;93.96;99164.06;2577092;28;20137;-83
2023/05/03 00:07:30;;;;;;;;;;;;;;;11.57;90.54;99168.88;2573276;28;20105;-83
2023/05/03 00:08:45;;;;;;;9.35;3.90;;;;;;;11.26;91.49;99168.63;2568327;28;19929;-83
2023/05/03 00:10:01;;;;;;;6.57;3.88;;;;;;;11.39;90.91;99164.88;2568037;28;20425;-83
2023/05/03 00:11:16;;;;;;;6.75;4.00;;;;;;;11.31;92.09;99166.75;2568041;28;20118;-83
2023/05/03 00:12:32;;;;;;;7.25;3.63;;;;;;;11.18;93.46;99168.78;2568341;28;20051;-83
2023/05/03 00:13:47;;;;;;;7.85;3.80;;;;;;;11.04;95.23;99173.41;2568052;28;20062;-85
2023/05/03 00:15:04;;;;;;;6.72;3.83;;;;;;;11.29;92.54;99164.19;2567937;28;20121;-85
2023/05/03 00:16:19;;;;;;;7.32;3.88;;;;;;;11.29;91.47;99168.56;2567797;28;20110;-84
2023/05/03 00:17:36;;;;;;;8.32;4.20;;;;;;;11.01;94.68;99164.72;2567847;28;20181;-85
2023/05/03 00:18:52;;;;;;;9.20;3.92;;;;;;;11.16;90.89;99168.78;2567958;28;20368;-85
2023/05/03 00:20:08;;;;;;;7.50;3.92;;;;;;;11.08;92.04;99164.59;2568030;28;20106;-85
2023/05/03 00:21:23;;;;;;;5.82;3.85;;;;;;;11.22;90.29;99167.81;2567893;28;20422;-84
2023/05/03 00:22:39;;;;;;;7.63;3.97;;;;;;;11.28;88.23;99166.84;2568164;28;20430;-85
2023/05/03 00:23:55;;;;;;;7.88;4.00;;;;;;;11.30;89.32;99175.53;2567891;28;20506;-84
2023/05/03 00:25:12;;;;;;;5.38;4.07;;;;;;;11.37;87.62;99177.16;2568164;28;20524;-84
2023/05/03 00:26:27;;;;;;;8.10;3.75;;;;;;;11.41;89.27;99168.31;2567937;28;20054;-85
2023/05/03 00:27:43;;;;;;;8.15;3.83;;;;;;;11.36;89.04;99164.94;2567846;28;20544;-83
2023/05/03 00:28:58;;;;;;;7.18;4.07;;;;;;;11.18;90.97;99158.28;2567917;28;20100;-84
2023/05/03 00:30:14;;;;;;;6.28;3.97;;;;;;;11.22;88.97;99164.34;2577216;28;20081;-84
2023/05/03 00:31:29;;;;;;;5.80;3.88;;;;;;;10.68;92.72;99164.38;2573352;28;20066;-83
2023/05/03 00:32:45;;;;;;;7.32;3.58;;;;;;;10.66;94.43;99170.56;2567666;28;20050;-84
2023/05/03 00:34:01;;;;;;;8.45;4.22;;;;;;;11.04;92.13;99170.78;2568010;28;20054;-83
2023/05/03 00:35:16;;;;;;;5.45;3.85;;;;;;;11.26;90.77;99163.38;2567814;28;20187;-83
2023/05/03 00:36:32;;;;;;;9.10;4.00;;;;;;;11.32;89.19;99171.16;2567861;28;20058;-83
2023/05/03 00:37:47;;;;;;;9.13;4.00;;;;;;;11.29;90.26;99173.78;2567882;28;20141;-84
2023/05/03 00:39:03;;;;;;;8.32;3.65;;;;;;;11.02;91.51;99176.03;2568064;28;20055;-83
2023/05/03 00:40:18;;;;;;;6.70;4.30;;;;;;;11.10;90.79;99165.41;2567736;28;20138;-84
2023/05/03 00:41:35;;;;;;;8.65;4.03;;;;;;;11.06;91.77;99163.75;2567884;28;20066;-84
2023/05/03 00:42:51;;;;;;;6.80;3.95;;;;;;;11.28;89.44;99166.84;2567848;28;20525;-85
2023/05/03 00:44:06;;;;;;;8.35;3.88;;;;;;;11.32;89.97;99167.63;2577094;28;20089;-83
2023/05/03 00:45:22;;;;;;;9.43;4.05;;;;;;;11.16;90.79;99166.16;2573321;28;20576;-83
2023/05/03 00:46:38;;;;;;;7.00;4.25;;;;;;;11.15;89.39;99169.69;2567863;28;20050;-84
2023/05/03 00:47:53;;;;;;;9.70;3.78;;;;;;;10.80;94.14;99168.56;2557310;28;20504;-84
2023/05/03 00:49:09;;;;;;;5.88;3.95;;;;;;;10.90;91.47;99173.66;2562836;28;20050;-83
2023/05/03 00:50:25;;;;;;;8.55;4.10;;;;;;;10.79;93.94;99173.81;2567120;28;20055;-83
2023/05/03 00:51:41;;;;;;;8.50;3.50;;;;;;;10.66;94.78;99174.03;2569566;28;20416;-84
2023/05/03 00:52:57;;;;;;;7.97;4.25;;;;;;;10.87;91.16;99175.41;2569553;28;20133;-84
2023/05/03 00:54:12;;;;;;;6.25;3.55;;;;;;;10.70;92.83;99172.22;2570005;28;20051;-83
2023/05/03 00:55:29;;;;;;;7.88;4.00;;;;;;;10.85;91.19;99169.34;2569842;28;20056;-84
2023/05/03 00:56:46;;;;;;;7.68;3.80;;;;;;;10.72;92.01;99178.31;2569459;28;20150;-83
2023/05/03 00:58:01;;;;;;;8.55;3.80;;;;;;;10.88;89.50;99171.91;2569587;28;20054;-84
2023/05/03 00:59:17;;;;;;;7.47;4.20;;;;;;;11.03;87.97;99177.75;2569889;28;20050;-84
2023/05/03 01:00:32;;;;;;;6.32;3.40;;;;;;;11.01;88.52;99172.56;2569538;28;20391;-84
2023/05/03 01:01:50;;;;;;;5.50;3.80;;;;;;;10.92;89.05;99169.25;2569793;28;20707;-84
2023/05/03 01:03:06;;;;;;;5.80;3.40;;;;;;;10.67;90.33;99175.75;2569722;28;20058;-83
2023/05/03 01:04:22;;;;;;;12.20;3.67;;;;;;;10.76;86.39;99174.75;2569762;28;20051;-84
2023/05/03 01:05:50;;;;;;;7.18;3.88;;;;;;;10.67;85.57;99174.91;2569688;28;20070;-84
2023/05/03 01:07:16;;;;;;;10.75;3.47;;;;;;;10.65;88.19;99174.06;2579145;28;20433;-83
2023/05/03 01:08:39;;;;;;;6.10;3.38;;;;;;;10.69;86.62;99180.97;2574058;28;20059;-83
2023/05/03 01:10:11;;;;;;;7.85;3.70;;;;;;;10.76;85.17;99184.34;2569498;28;20050;-83
2023/05/03 01:11:40;;;;;;;5.72;3.30;;;;;;;10.72;85.07;99183.53;2569536;28;20137;-83
2023/05/03 01:13:13;;;;;;;5.78;3.30;;;;;;;10.22;89.83;99175.56;2569685;28;20054;-83
2023/05/03 01:14:38;;;;;;;10.73;3.90;;;;;;;10.38;89.04;99184.91;2558483;29;20079;-83
2023/05/03 01:15:57;;;;;;;6.53;3.38;;;;;;;10.64;86.37;99178.44;2564606;28;20066;-84
2023/05/03 01:17:14;;;;;;;6.90;3.30;;;;;;;10.40;89.23;99184.91;2569610;28;20062;-83
2023/05/03 01:18:33;;;;;;;10.77;3.15;;;;;;;10.70;84.73;99182.72;2569705;28;20180;-84
2023/05/03 01:19:52;;;;;;;8.73;3.50;;;;;;;10.69;83.19;99183.59;2569584;28;20054;-84
2023/05/03 01:21:09;;;;;;;5.55;3.10;;;;;;;10.68;85.32;99181.88;2569398;28;20058;-83
2023/05/03 01:22:41;;;;;;;6.38;3.28;;;;;;;10.67;85.65;99181.00;2569465;28;20055;-83
2023/05/03 01:24:08;;;;;;;6.47;3.67;;;;;;;10.45;86.70;99181.34;2569563;28;20058;-83
2023/05/03 01:25:27;;;;;;;8.75;3.92;;;;;;;10.58;85.07;99182.00;2578540;28;20058;-83
2023/05/03 01:26:43;;;;;;;7.50;3.10;;;;;;;10.47;86.96;99186.53;2574733;28;20624;-84
2023/05/03 01:27:59;;;;;;;5.47;3.05;;;;;;;10.54;86.35;99182.97;2569580;28;20125;-83
2023/05/03 01:29:14;;;;;;;8.40;3.58;;;;;;;10.59;83.65;99180.28;2569702;28;20046;-84
2023/05/03 01:30:31;;;;;;;6.18;2.92;;;;;;;10.37;86.64;99180.56;2569488;28;20319;-84
2023/05/03 01:31:59;;;;;;;8.30;4.05;;;;;;;10.68;84.13;99181.88;2569217;28;20093;-83
2023/05/03 01:33:34;;;;;;;5.18;2.95;;;;;;;10.64;85.09;99173.19;2569426;28;20058;-83
2023/05/03 01:35:00;;;;;;;6.57;3.45;;;;;;;10.77;83.89;99179.09;2569103;28;20357;-84
2023/05/03 01:36:22;;;;;;;9.80;3.50;;;;;;;10.61;84.98;99181.09;2569623;28;20510;-85
2023/05/03 01:37:40;;;;;;;9.45;4.10;;;;;;;10.27;87.51;99179.84;2569208;28;20054;-82
2023/05/03 01:38:56;;;;;;;7.47;3.58;;;;;;;10.48;84.30;99177.84;2569459;28;20065;-83
2023/05/03 01:40:15;;;;;;;7.35;3.40;;;;;;;10.38;86.77;99178.81;2569346;28;20054;-83
2023/05/03 01:41:32;;;;;;;6.55;3.20;;;;;;;10.12;88.16;99185.31;2569425;28;20489;-82
2023/05/03 01:42:50;;;;;;;6.32;3.17;;;;;;;10.49;83.62;99187.41;2569319;28;20093;-83
2023/05/03 01:44:06;;;;;;;5.03;2.97;;;;;;;10.57;84.46;99180.28;2569318;28;20054;-84
2023/05/03 01:45:22;;;;;;;6.88;3.20;;;;;;;10.31;85.21;99191.13;2569298;28;20055;-84
2023/05/03 01:46:42;;;;;;;5.05;3.25;;;;;;;10.38;85.40;99189.28;2569445;28;20111;-83
2023/05/03 01:47:58;;;;;;;7.10;3.58;;;;;;;10.49;83.17;99184.78;2568863;28;20065;-85
2023/05/03 01:49:14;;;;;;;9.55;3.60;;;;;;;10.47;83.54;99189.16;2568744;28;20093;-83
2023/05/03 01:50:29;;;;;;;6.32;3.30;;;;;;;10.16;86.15;99185.25;2569196;28;20142;-84
2023/05/03 01:51:45;;;;;;;4.97;2.95;;;;;;;10.08;88.49;99186.25;2569248;28;20050;-83
2023/05/03 01:53:01;;;;;;;8.07;3.60;;;;;;;10.21;85.33;99184.31;2569416;28;20058;-84
2023/05/03 01:54:17;;;;;;;10.93;3.42;;;;;;;10.15;86.90;99183.50;2569211;28;20055;-83
2023/05/03 01:55:32;;;;;;;5.40;3.20;;;;;;;10.13;86.18;99179.19;2569052;28;20493;-83
2023/05/03 01:56:47;;;;;;;5.28;2.80;;;;;;;10.22;85.78;99186.91;2568927;28;20501;-83
2023/05/03 01:58:03;;;;;;;7.75;3.63;;;;;;;10.20;87.08;99187.81;2566805;28;20066;-84
2023/05/03 01:59:19;;;;;;;8.02;3.28;;;;;;;10.13;87.77;99187.03;2568670;28;20054;-84
2023/05/03 02:00:34;;;;;;;9.43;3.40;;;;;;;10.24;84.88;99192.09;2568672;28;20051;-83
2023/05/03 02:01:50;;;;;;;4.72;3.03;;;;;;;10.31;85.50;99189.38;2568907;28;20092;-83
2023/05/03 02:03:05;;;;;;;8.38;3.63;;;;;;;10.25;85.89;99191.22;2558506;29;20113;-84
2023/05/03 02:04:21;;;;;;;9.13;3.90;;;;;;;10.08;86.80;99187.09;2562300;28;20062;-82
2023/05/03 02:05:36;;;;;;;9.55;3.50;;;;;;;10.24;85.86;99182.50;2569031;28;20618;-84
2023/05/03 02:06:52;;;;;;;6.05;3.35;;;;;;;10.28;84.51;99183.34;2569020;28;20081;-84
2023/05/03 02:08:07;;;;;;;6.25;3.40;;;;;;;10.32;84.65;99191.09;2569033;28;20430;-84
2023/05/03 02:09:24;;;;;;;6.28;3.08;;;;;;;10.30;85.21;99187.63;2568711;28;20074;-84
2023/05/03 02:10:42;;;;;;;7.72;3.75;;;;;;;10.50;82.91;99191.75;2568792;28;20055;-85
2023/05/03 02:11:58;;;;;;;6.82;3.35;;;;;;;10.49;80.98;99183.91;2568977;28;20133;-85
2023/05/03 02:13:15;;;;;;;11.90;3.53;;;;;;;10.34;83.59;99188.47;2568619;28;20055;-85
2023/05/03 02:14:31;;;;;;;7.10;3.47;;;;;;;10.37;81.27;99195.41;2568940;28;20059;-85
2023/05/03 02:15:47;;;;;;;6.20;3.28;;;;;;;9.96;86.37;99187.25;2568911;28;20691;-84
2023/05/03 02:17:03;;;;;;;4.97;3.28;;;;;;;10.31;83.45;99191.13;2568537;28;20200;-85
2023/05/03 02:18:19;;;;;;;6.53;3.90;;;;;;;10.25;82.67;99193.81;2568763;28;20065;-84
2023/05/03 02:19:34;;;;;;;7.50;3.47;;;;;;;10.51;80.56;99193.50;2568880;28;20403;-85
2023/05/03 02:20:50;;;;;;;6.20;3.22;;;;;;;10.37;79.72;99192.81;2568266;28;20058;-84
2023/05/03 02:22:05;;;;;;;5.20;3.30;;;;;;;10.50;78.78;99194.38;2568823;28;20055;-84
2023/05/03 02:23:21;;;;;;;5.55;3.45;;;;;;;10.28;79.33;99199.88;2568983;28;20055;-85
2023/05/03 02:24:38;;;;;;;8.27;3.45;;;;;;;10.17;79.64;99193.94;2568596;28;21321;-85
2023/05/03 02:25:54;;;;;;;7.97;3.38;;;;;;;10.04;82.93;99191.50;2557486;29;20510;-84
2023/05/03 02:27:09;;;;;;;8.35;3.22;;;;;;;9.82;84.36;99190.06;2562418;28;20062;-84
2023/05/03 02:28:25;;;;;;;10.30;3.65;;;;;;;9.95;83.17;99185.53;2568785;28;20086;-84
2023/05/03 02:29:40;;;;;;;12.95;3.40;;;;;;;9.93;83.37;99188.19;2568686;28;20050;-84
2023/05/03 02:30:56;;;;;;;10.88;3.78;;;;;;;9.93;82.68;99185.56;2568642;28;20968;-84
2023/05/03 02:32:12;;;;;;;8.65;3.28;;;;;;;9.57;82.94;99177.28;2568793;28;20114;-84
2023/05/03 02:33:27;;;;;;;5.25;2.70;;;;;;;9.69;83.56;99187.59;2568941;28;20070;-85
2023/05/03 02:34:45;;;;;;;6.90;3.22;;;;;;;9.66;81.63;99194.59;2568346;28;20524;-84
2023/05/03 02:36:01;;;;;;;6.20;2.88;;;;;;;9.45;83.09;99189.63;2568646;28;20141;-85
2023/05/03 02:37:17;;;;;;;5.05;2.88;;;;;;;9.52;83.21;99187.78;2568782;28;20062;-83
2023/05/03 02:38:32;;;;;;;8.20;3.58;;;;;;;9.55;82.52;99192.13;2568228;28;20350;-84
2023/05/03 02:39:48;;;;;;;7.05;3.20;;;;;;;9.58;81.66;99186.84;2568334;28;20065;-84
2023/05/03 02:41:03;;;;;;;7.50;3.33;;;;;;;9.61;81.91;99192.03;2568595;28;20129;-84
2023/05/03 02:42:19;;;;;;;10.63;3.55;;;;;;;9.85;79.87;99190.03;2568532;28;20110;-84
2023/05/03 02:43:35;;;;;;;5.88;2.75;;;;;;;9.51;81.24;99187.84;2568826;28;20074;-84
2023/05/03 02:44:50;;;;;;;6.57;3.40;;;;;;;9.74;79.36;99187.56;2568799;28;20062;-84
2023/05/03 02:46:06;;;;;;;6.70;2.92;;;;;;;9.51;80.94;99191.28;2568632;28;20426;-85
2023/05/03 02:47:22;;;;;;;6.68;3.10;;;;;;;9.48;79.69;99188.72;2568480;28;20639;-83
2023/05/03 02:48:37;;;;;;;10.25;3.58;;;;;;;9.67;79.05;99192.00;2568666;28;20055;-84
2023/05/03 02:49:52;;;;;;;7.93;3.33;;;;;;;9.66;78.42;99192.88;2568501;28;20066;-84
2023/05/03 02:51:08;;;;;;;6.28;3.45;;;;;;;9.69;78.28;99189.34;2568277;28;20078;-83
2023/05/03 02:52:24;;;;;;;10.70;2.95;;;;;;;9.43;79.63;99194.00;2568329;28;20066;-88
2023/05/03 02:53:39;;;;;;;7.45;3.35;;;;;;;9.70;77.81;99191.06;2568784;28;20066;-84
2023/05/03 02:54:55;;;;;;;9.63;3.40;;;;;;;9.80;78.04;99186.59;2568939;28;20066;-85
2023/05/03 02:56:11;;;;;;;6.25;2.97;;;;;;;9.78;75.60;99193.59;2568399;28;20062;-84
2023/05/03 02:57:26;;;;;;;6.15;2.97;;;;;;;9.99;74.81;99193.31;2568658;28;20065;-84
2023/05/03 02:58:42;;;;;;;8.30;3.40;;;;;;;9.89;75.10;99186.47;2568520;28;20113;-84
2023/05/03 02:59:57;;;;;;;8.85;3.05;;;;;;;9.71;77.38;99183.22;2566094;28;20071;-84
2023/05/03 03:01:13;;;;;;;6.22;3.25;;;;;;;9.89;75.79;99189.97;2568542;28;20059;-84
2023/05/03 03:02:29;;;;;;;6.47;3.28;;;;;;;9.78;78.03;99198.81;2568817;28;20084;-84
2023/05/03 03:03:44;;;;;;;9.43;3.20;;;;;;;9.82;77.65;99196.16;2568376;28;20050;-84
2023/05/03 03:05:00;;;;;;;4.63;2.97;;;;;;;9.79;77.03;99195.34;2568339;28;20078;-85
2023/05/03 03:06:15;;;;;;;8.35;3.40;;;;;;;9.33;79.95;99192.34;2568641;28;20449;-84
2023/05/03 03:07:31;;;;;;;8.82;3.35;;;;;;;9.60;77.56;99198.16;2568499;28;20086;-84
2023/05/03 03:08:47;;;;;;;7.40;3.28;;;;;;;9.59;77.46;99205.16;2568484;28;20679;-85
2023/05/03 03:10:02;;;;;;;5.53;3.58;;;;;;;9.61;77.90;99203.38;2568691;28;20066;-84
2023/05/03 03:11:18;;;;;;;6.03;3.38;;;;;;;9.79;76.90;99198.81;2567741;28;20055;-84
2023/05/03 03:12:37;;;;;;;8.27;3.08;;;;;;;9.51;78.16;99203.50;2568483;28;21082;-85
2023/05/03 03:13:53;;;;;;;6.88;3.40;;;;;;;9.54;78.79;99206.09;2568461;28;20106;-84
2023/05/03 03:15:09;;;;;;;7.43;3.47;;;;;;;9.54;78.85;99204.31;2568464;28;20055;-83
2023/05/03 03:16:24;;;;;;;6.20;3.38;;;;;;;9.67;77.60;99206.78;2568206;28;20058;-83
2023/05/03 03:17:40;;;;;;;6.57;3.50;;;;;;;9.74;75.32;99203.25;2568195;28;20062;-83
2023/05/03 03:18:56;;;;;;;9.02;3.53;;;;;;;9.49;79.40;99205.25;2568580;28;20061;-83
2023/05/03 03:20:11;;;;;;;6.35;3.35;;;;;;;9.72;77.95;99205.00;2568413;28;20057;-83
2023/05/03 03:21:27;;;;;;;7.63;3.20;;;;;;;9.99;76.37;99201.16;2568261;28;20043;-83
2023/05/03 03:22:44;;;;;;;9.20;3.60;;;;;;;9.94;76.34;99203.00;2568286;28;20055;-83
2023/05/03 03:23:59;;;;;;;8.05;3.35;;;;;;;9.92;75.83;99203.88;2568414;28;20477;-84
2023/05/03 03:25:15;;;;;;;6.65;3.28;;;;;;;9.97;74.86;99213.41;2568250;28;20064;-84
2023/05/03 03:26:31;;;;;;;6.68;3.17;;;;;;;9.99;74.49;99211.63;2568387;28;20058;-84
2023/05/03 03:27:46;;;;;;;6.30;3.10;;;;;;;10.09;72.89;99216.75;2568526;28;20051;-84
2023/05/03 03:29:02;;;;;;;7.97;3.40;;;;;;;10.04;74.79;99212.41;2567654;28;20137;-84
2023/05/03 03:30:17;;;;;;;4.75;3.13;;;;;;;10.02;74.22;99219.44;2567752;28;20102;-84
2023/05/03 03:31:33;;;;;;;7.00;3.78;;;;;;;9.83;74.92;99221.41;2568118;28;20465;-84
2023/05/03 03:32:49;;;;;;;10.07;3.60;;;;;;;9.58;77.57;99224.34;2568342;28;20517;-83
2023/05/03 03:34:04;;;;;;;7.97;3.70;;;;;;;9.71;75.44;99219.81;2568135;28;20200;-83
2023/05/03 03:35:20;;;;;;;5.90;3.17;;;;;;;10.00;73.90;99218.59;2567118;28;20054;-84
2023/05/03 03:36:38;;;;;;;7.03;3.63;;;;;;;10.01;73.61;99219.47;2567490;28;20094;-84
2023/05/03 03:37:53;;;;;;;8.18;3.30;;;;;;;10.02;73.78;99222.03;2557324;29;20125;-83
2023/05/03 03:39:09;;;;;;;10.15;3.42;;;;;;;10.04;74.21;99216.81;2561311;28;20055;-84
2023/05/03 03:40:24;;;;;;;7.47;3.50;;;;;;;10.07;74.11;99218.53;2567774;28;20059;-85
2023/05/03 03:41:40;;;;;;;6.70;3.55;;;;;;;9.82;75.18;99218.84;2568281;28;20059;-84
2023/05/03 03:42:55;;;;;;;8.48;3.95;;;;;;;9.71;76.90;99217.22;2567806;28;20106;-83
2023/05/03 03:44:11;;;;;;;8.32;3.65;;;;;;;9.85;74.81;99219.66;2568054;28;20561;-83
2023/05/03 03:45:26;;;;;;;6.53;3.45;;;;;;;9.88;74.14;99217.00;2568097;28;20054;-85
2023/05/03 03:46:42;;;;;;;5.95;3.40;;;;;;;9.96;73.52;99229.09;2568210;28;20106;-84
2023/05/03 03:47:58;;;;;;;5.57;3.20;;;;;;;9.91;73.32;99217.84;2567698;28;20614;-84
2023/05/03 03:49:13;;;;;;;9.68;3.35;;;;;;;9.43;78.46;99220.13;2568091;28;20054;-84
2023/05/03 03:50:29;;;;;;;5.50;3.38;;;;;;;9.68;75.46;99212.03;2567588;28;20465;-84
2023/05/03 03:51:44;;;;;;;8.30;3.35;;;;;;;9.38;76.30;99211.50;2567597;28;20059;-85
2023/05/03 03:53:00;;;;;;;8.63;3.55;;;;;;;9.65;74.01;99219.91;2567706;28;20821;-88
2023/05/03 03:54:15;;;;;;;8.43;3.47;;;;;;;9.63;73.70;99220.78;2567914;28;20054;-84
2023/05/03 03:55:31;;;;;;;7.57;3.47;;;;;;;9.55;74.93;99218.28;2567688;28;20089;-84
2023/05/03 03:56:47;;;;;;;5.75;3.00;;;;;;;9.43;74.33;99222.75;2567457;28;20510;-85
2023/05/03 03:58:03;;;;;;;6.70;3.45;;;;;;;9.33;74.61;99219.38;2568366;28;20051;-84
2023/05/03 03:59:18;;;;;;;6.90;3.42;;;;;;;9.55;71.55;99221.75;2567884;28;20088;-85
2023/05/03 04:00:37;;;;;;;7.85;3.63;;;;;;;9.60;73.17;99224.31;2567484;28;20501;-84
2023/05/03 04:01:52;;;;;;;9.93;3.50;;;;;;;9.36;74.17;99226.31;2568047;28;20105;-84
2023/05/03 04:03:08;;;;;;;7.32;3.40;;;;;;;9.47;73.13;99232.28;2568117;28;20078;-85
2023/05/03 04:04:23;;;;;;;7.40;3.63;;;;;;;9.54;72.05;99227.84;2567295;28;20066;-84
2023/05/03 04:05:39;;;;;;;5.97;3.10;;;;;;;9.64;73.39;99227.75;2567731;28;20054;-84
2023/05/03 04:06:55;;;;;;;6.35;3.42;;;;;;;9.29;75.04;99230.75;2557001;29;20074;-84
2023/05/03 04:08:11;;;;;;;5.50;3.10;;;;;;;9.47;71.86;99231.44;2561287;28;20414;-86
2023/05/03 04:09:26;;;;;;;7.85;3.70;;;;;;;9.50;71.64;99226.16;2567262;28;20046;-84
2023/05/03 04:10:42;;;;;;;8.05;3.45;;;;;;;9.66;72.33;99228.59;2565621;28;20066;-87
2023/05/03 04:11:58;;;;;;;7.55;3.33;;;;;;;9.39;73.83;99228.91;2567593;28;20047;-84
2023/05/03 04:13:14;;;;;;;5.28;3.05;;;;;;;9.69;68.76;99239.00;2567637;28;20584;-84
2023/05/03 04:14:29;;;;;;;10.75;4.00;;;;;;;9.51;68.94;99233.13;2567694;28;20063;-85
2023/05/03 04:15:46;;;;;;;8.00;3.72;;;;;;;9.48;69.81;99235.78;2567802;28;20059;-86
2023/05/03 04:17:03;;;;;;;6.18;3.60;;;;;;;9.40;70.69;99241.09;2567719;28;20093;-85
2023/05/03 04:18:19;;;;;;;6.63;3.47;;;;;;;9.51;71.33;99240.97;2567898;28;20086;-85
2023/05/03 04:19:34;;;;;;;7.05;3.17;;;;;;;9.60;69.77;99234.75;2567665;28;20055;-85
2023/05/03 04:20:50;;;;;;;7.35;3.70;;;;;;;9.52;69.17;99234.84;2568048;28;20054;-84
2023/05/03 04:22:06;;;;;;;9.85;3.55;;;;;;;9.58;70.13;99236.53;2567389;28;20186;-85
2023/05/03 04:23:21;;;;;;;6.90;3.20;;;;;;;9.32;72.15;99246.38;2567700;28;20109;-86
2023/05/03 04:24:38;;;;;;;7.15;3.53;;;;;;;9.57;71.80;99247.88;2568198;28;20105;-84
2023/05/03 04:25:55;;;;;;;8.90;3.38;;;;;;;9.45;72.54;99248.88;2567612;28;20617;-84
2023/05/03 04:27:13;;;;;;;10.23;3.55;;;;;;;9.55;73.17;99244.41;2568043;28;20509;-85
2023/05/03 04:28:28;;;;;;;9.50;3.92;;;;;;;9.45;71.01;99243.66;2567657;28;20557;-84
2023/05/03 04:29:44;;;;;;;6.07;3.28;;;;;;;9.29;73.45;99249.03;2567893;28;20153;-84
2023/05/03 04:31:00;;;;;;;8.95;4.13;;;;;;;9.15;74.30;99243.94;2567390;28;20052;-84
2023/05/03 04:32:15;;;;;;;9.73;4.20;;;;;;;9.27;74.62;99253.38;2567798;28;20393;-84
2023/05/03 04:33:31;;;;;;;8.38;4.07;;;;;;;9.39;72.32;99257.66;2567749;28;20062;-84
2023/05/03 04:34:47;;;;;;;7.35;3.80;;;;;;;9.38;72.27;99261.16;2567876;28;20059;-84
2023/05/03 04:36:03;;;;;;;6.78;3.92;;;;;;;9.29;72.55;99258.59;2567556;28;20054;-85
2023/05/03 04:37:19;;;;;;;10.65;4.18;;;;;;;9.45;71.77;99260.19;2567951;28;20098;-86
2023/05/03 04:38:34;;;;;;;6.97;3.95;;;;;;;9.42;71.80;99260.22;2556984;29;20059;-84
2023/05/03 04:39:50;;;;;;;10.48;4.00;;;;;;;9.20;72.74;99259.56;2561100;28;20072;-85
2023/05/03 04:41:06;;;;;;;6.95;3.63;;;;;;;9.21;74.55;99269.13;2567742;28;20067;-83
2023/05/03 04:42:21;;;;;;;6.43;3.80;;;;;;;9.23;75.43;99269.13;2568046;28;20055;-83
2023/05/03 04:43:38;;;;;;;10.68;4.25;;;;;;;9.02;76.80;99273.66;2557149;29;20059;-83
2023/05/03 04:44:53;;;;;;;5.10;3.20;;;;;;;8.99;74.86;99271.06;2561372;28;20093;-83
2023/05/03 04:46:09;;;;;;;6.68;3.97;;;;;;;9.15;74.75;99277.91;2567661;28;20413;-83
2023/05/03 04:47:24;;;;;;;9.55;3.83;;;;;;;9.13;75.45;99284.88;2567796;28;20575;-84
2023/05/03 04:48:40;;;;;;;11.18;3.60;;;;;;;9.14;74.88;99281.38;2567305;28;20429;-82
2023/05/03 04:49:55;;;;;;;5.60;3.45;;;;;;;9.14;74.78;99278.78;2567431;28;20059;-83
2023/05/03 04:51:11;;;;;;;5.45;3.35;;;;;;;9.36;71.66;99282.94;2567289;28;20062;-82
2023/05/03 04:52:26;;;;;;;8.05;3.70;;;;;;;9.55;72.25;99283.63;2567574;28;20113;-83
2023/05/03 04:53:42;;;;;;;6.47;3.63;;;;;;;9.43;73.13;99280.25;2567770;28;20059;-82
2023/05/03 04:54:57;;;;;;;9.98;3.45;;;;;;;9.27;75.45;99282.13;2567746;28;20069;-83
2023/05/03 04:56:14;;;;;;;8.13;4.20;;;;;;;9.42;75.09;99288.97;2567121;28;20082;-82
2023/05/03 04:57:31;;;;;;;4.03;3.50;;;;;;;9.51;73.14;99282.78;2567369;28;20117;-82
2023/05/03 04:58:46;;;;;;;6.95;3.85;;;;;;;9.36;74.27;99280.31;2567525;28;20133;-82
2023/05/03 05:00:03;;;;;;;7.40;4.00;;;;;;;9.41;71.49;99283.75;2567501;28;20059;-83
2023/05/03 05:01:20;;;;;;;7.43;3.92;;;;;;;9.79;70.66;99285.09;2567324;28;20506;-82
2023/05/03 05:02:36;;;;;;;6.68;3.63;;;;;;;9.59;73.45;99290.56;2567701;28;20090;-83
2023/05/03 05:03:52;;;;;;;6.45;3.67;;;;;;;9.54;72.81;99289.75;2567577;28;20486;-82
2023/05/03 05:05:09;;;;;;;9.95;4.38;;;;;;;9.63;72.41;99289.63;2567284;28;20078;-83
2023/05/03 05:06:26;;;;;;;14.00;4.45;;;;;;;9.84;70.30;99293.75;2562990;28;20078;-83
2023/05/03 05:07:41;;;;;;;10.13;4.10;;;;;;;9.79;70.26;99297.34;2564536;28;20066;-83
2023/05/03 05:08:57;;;;;;;7.43;4.10;;;;;;;9.82;70.60;99295.53;2568057;28;20062;-83
2023/05/03 05:10:13;;;;;;;8.32;3.70;;;;;;;9.97;70.81;99299.72;2567350;28;20050;-82
2023/05/03 05:11:30;;;;;;;6.70;3.50;;;;;;;10.25;68.54;99298.50;2567830;28;20126;-83
2023/05/03 05:12:45;;;;;;;6.53;3.83;;;;;;;10.32;69.67;99298.41;2568564;28;20061;-83
2023/05/03 05:14:01;;;;;;;6.90;3.45;;;;;;;10.32;65.80;99300.19;2567821;28;20513;-82
2023/05/03 05:15:16;;;;;;;7.55;3.90;;;;;;;10.33;67.01;99299.28;2567775;28;20146;-82
2023/05/03 05:16:32;;;;;;;7.30;3.35;;;;;;;10.47;65.30;99303.50;2567467;28;20055;-82
2023/05/03 05:17:48;;;;;;;7.25;3.50;;;;;;;10.63;64.71;99301.56;2567443;28;20117;-81
2023/05/03 05:19:03;;;;;;;7.70;3.78;;;;;;;10.69;63.09;99307.56;2568014;28;20062;-82
2023/05/03 05:20:19;;;;;;;13.45;3.70;;;;;;;10.70;61.56;99303.19;2567442;28;20440;-82
2023/05/03 05:21:35;;;;;;;8.07;3.75;;;;;;;10.61;63.51;99306.81;2567240;28;20506;-82
2023/05/03 05:22:50;;;;;;;9.32;4.03;;;;;;;10.56;63.43;99309.47;2576822;28;20070;-81
2023/05/03 05:24:06;;;;;;;7.20;2.90;;;;;;;9.82;64.26;99307.75;2572975;28;20177;-81
2023/05/03 05:25:22;;;;;;;5.43;3.03;;;;;;;10.20;64.16;99310.81;2567467;28;20134;-84
2023/05/03 05:26:37;;;;;;;10.80;3.65;;;;;;;10.40;62.91;99321.03;2556841;29;20059;-81
2023/05/03 05:27:53;;;;;;;8.38;3.58;;;;;;;10.14;66.12;99315.25;2561333;28;20089;-81
2023/05/03 05:29:09;;;;;;;6.72;3.47;;;;;;;10.25;64.59;99316.84;2567249;28;20130;-82
2023/05/03 05:30:24;;;;;;;8.35;3.53;;;;;;;10.62;60.97;99323.41;2567512;28;20522;-82
2023/05/03 05:31:40;;;;;;;12.60;3.85;;;;;;;10.62;60.82;99320.78;2567332;28;20077;-84
2023/05/03 05:32:55;;;;;;;7.32;3.28;;;;;;;10.34;63.91;99316.72;2567446;28;20051;-83
2023/05/03 05:34:12;;;;;;;8.55;3.78;;;;;;;10.04;65.44;99316.22;2567763;28;20063;-82
2023/05/03 05:35:28;;;;;;;7.47;3.65;;;;;;;10.22;65.57;99320.38;2569310;28;20525;-83
2023/05/03 05:36:43;;;;;;;11.10;3.30;;;;;;;10.45;62.95;99320.09;2568903;28;20106;-83
2023/05/03 05:37:59;;;;;;;7.93;3.75;;;;;;;10.70;64.02;99326.75;2568993;28;20167;-84
2023/05/03 05:39:15;;;;;;;7.80;3.63;;;;;;;10.64;65.78;99329.47;2568857;28;20415;-83
2023/05/03 05:40:30;;;;;;;7.05;3.15;;;;;;;10.30;63.44;99328.13;2558373;29;20063;-83
2023/05/03 05:41:46;;;;;;;7.18;3.95;;;;;;;10.18;64.74;99323.88;2562476;28;20118;-83
2023/05/03 05:43:01;;;;;;;7.50;3.22;;;;;;;10.21;64.62;99329.13;2568784;28;20058;-83
2023/05/03 05:44:17;;;;;;;8.10;3.63;;;;;;;10.29;63.29;99329.03;2568991;28;20399;-84
2023/05/03 05:45:33;;;;;;;6.00;3.55;;;;;;;10.36;63.50;99327.19;2569087;28;20059;-83
2023/05/03 05:46:48;;;;;;;7.63;3.80;;;;;;;10.63;61.73;99333.81;2568800;28;20069;-83
2023/05/03 05:48:04;;;;;;;9.48;3.25;;;;;;;10.83;61.04;99343.19;2569226;28;20573;-83
2023/05/03 05:49:20;;;;;;;9.93;4.65;;;;;;;10.98;60.34;99335.09;2568941;28;20066;-83
2023/05/03 05:50:36;;;;;;;8.77;3.35;;;;;;;11.06;61.51;99337.59;2569531;28;20537;-87
2023/05/03 05:51:51;;;;;;;8.50;3.50;;;;;;;10.79;61.55;99341.47;2568735;28;20050;-87
2023/05/03 05:53:08;;;;;;;9.98;3.78;;;;;;;10.77;60.77;99346.75;2569143;28;20062;-89
2023/05/03 05:54:23;;;;;;;7.88;3.40;;;;;;;10.68;62.66;99344.25;2568642;28;20453;-87
2023/05/03 05:55:39;;;;;;;10.15;3.30;;;;;;;10.69;61.79;99343.34;2569226;28;20051;-88
2023/05/03 05:56:55;;;;;;;9.63;3.20;;;;;;;10.78;61.46;99347.59;2568398;28;20585;-89
2023/05/03 05:58:11;;;;;;;7.30;3.15;;;;;;;10.77;60.89;99344.13;2569672;28;20430;-87
2023/05/03 05:59:29;;;;;;;5.57;3.40;;;;;;;10.85;61.08;99344.00;2568731;28;20054;-88
2023/05/03 06:00:47;;;;;;;7.18;3.10;;;;;;;10.59;61.73;99346.09;2571186;28;20055;-87
2023/05/03 06:02:03;;;;;;;4.93;2.80;;;;;;;10.49;61.43;99348.84;2571044;28;20082;-88